createdAt,value
2023-08-09T00:00:45.746Z,25.29
2023-08-09T00:01:49.356Z,25.23
2023-08-09T00:02:52.064Z,25.22
2023-08-09T00:03:56.064Z,25.12
2023-08-09T00:04:58.649Z,25.20
2023-08-09T00:06:02.287Z,25.27
2023-08-09T00:07:05.306Z,25.29
2023-08-09T00:08:09.254Z,25.35
2023-08-09T00:09:12.423Z,25.36
2023-08-09T00:10:16.139Z,25.35
2023-08-09T00:11:18.713Z,25.34
2023-08-09T00:12:22.399Z,25.35
2023-08-09T00:13:26.332Z,25.36
2023-08-09T00:14:29.936Z,25.34
2023-08-09T00:15:32.448Z,25.40
2023-08-09T00:16:37.534Z,25.41
2023-08-09T00:17:40.316Z,25.42
2023-08-09T00:18:44.107Z,25.41
2023-08-09T00:19:47.830Z,25.44
2023-08-09T00:20:51.750Z,25.47
2023-08-09T00:21:55.420Z,25.41
2023-08-09T00:23:00.491Z,25.30
2023-08-09T00:24:04.641Z,25.35
2023-08-09T00:25:12.398Z,25.41
2023-08-09T00:26:15.647Z,25.43
2023-08-09T00:27:22.769Z,25.43
2023-08-09T00:28:26.091Z,25.45
2023-08-09T00:29:31.074Z,25.44
2023-08-09T00:30:33.721Z,25.43
2023-08-09T00:31:39.166Z,25.38
2023-08-09T00:32:42.437Z,25.35
2023-08-09T00:33:46.889Z,25.21
2023-08-09T00:34:49.701Z,25.25
2023-08-09T00:35:53.156Z,25.20
2023-08-09T00:36:55.586Z,25.21
2023-08-09T00:37:59.522Z,25.10
2023-08-09T00:39:02.651Z,25.08
2023-08-09T00:40:08.945Z,25.05
2023-08-09T00:41:11.510Z,25.00
2023-08-09T00:42:15.308Z,25.02
2023-08-09T00:43:18.197Z,24.97
2023-08-09T00:44:22.019Z,25.06
2023-08-09T00:45:25.044Z,25.10
2023-08-09T00:46:28.793Z,25.00
2023-08-09T00:47:33.968Z,25.02
2023-08-09T00:48:38.247Z,25.02
2023-08-09T00:49:41.633Z,25.00
2023-08-09T00:50:45.518Z,24.99
2023-08-09T00:51:49.043Z,24.93
2023-08-09T00:52:52.828Z,24.92
2023-08-09T00:53:55.274Z,24.90
2023-08-09T00:54:59.859Z,24.85
2023-08-09T00:56:02.673Z,24.83
2023-08-09T00:57:07.820Z,24.89
2023-08-09T00:58:10.411Z,24.91
2023-08-09T00:59:13.929Z,24.87
2023-08-09T01:00:16.687Z,24.78
2023-08-09T01:01:20.235Z,24.77
2023-08-09T01:02:23.161Z,24.77
2023-08-09T01:03:28.548Z,24.88
2023-08-09T01:04:32.224Z,24.76
2023-08-09T01:05:42.315Z,24.78
2023-08-09T01:06:50.527Z,24.75
2023-08-09T01:08:02.792Z,24.77
2023-08-09T01:09:12.599Z,24.78
2023-08-09T01:10:18.771Z,24.87
2023-08-09T01:11:30.212Z,24.92
2023-08-09T01:12:40.549Z,24.83
2023-08-09T01:13:44.421Z,24.85
2023-08-09T01:14:54.066Z,24.75
2023-08-09T01:15:57.256Z,24.68
2023-08-09T01:17:02.873Z,24.66
2023-08-09T01:18:10.130Z,24.59
2023-08-09T01:19:31.911Z,24.55
2023-08-09T01:20:36.198Z,24.47
2023-08-09T01:21:45.876Z,24.44
2023-08-09T01:22:56.749Z,24.32
2023-08-09T01:24:02.562Z,24.25
2023-08-09T01:25:09.592Z,24.19
2023-08-09T01:26:15.005Z,24.16
2023-08-09T01:27:18.238Z,24.23
2023-08-09T01:28:22.985Z,24.17
2023-08-09T01:29:25.365Z,24.10
2023-08-09T01:30:29.375Z,24.08
2023-08-09T01:31:32.261Z,24.14
2023-08-09T01:32:36.950Z,24.13
2023-08-09T01:33:39.868Z,24.15
2023-08-09T01:34:42.616Z,24.18
2023-08-09T01:35:56.233Z,24.19
2023-08-09T01:37:04.582Z,24.14
2023-08-09T01:38:13.254Z,24.16
2023-08-09T01:39:22.740Z,24.18
2023-08-09T01:40:26.865Z,24.13
2023-08-09T01:41:31.412Z,24.13
2023-08-09T01:42:35.644Z,24.12
2023-08-09T01:43:38.765Z,24.10
2023-08-09T01:44:43.373Z,24.14
2023-08-09T01:45:45.839Z,24.16
2023-08-09T01:46:50.406Z,24.23
2023-08-09T01:47:53.763Z,24.21
2023-08-09T01:49:10.080Z,24.19
2023-08-09T01:50:20.641Z,24.22
2023-08-09T01:51:24.450Z,24.29
2023-08-09T01:52:27.397Z,24.25
2023-08-09T01:53:31.408Z,24.26
2023-08-09T01:54:36.154Z,24.25
2023-08-09T01:55:42.052Z,24.26
2023-08-09T01:56:45.275Z,24.32
2023-08-09T01:57:48.941Z,24.31
2023-08-09T01:58:51.472Z,24.41
2023-08-09T01:59:54.883Z,24.44
2023-08-09T02:00:57.376Z,24.41
2023-08-09T02:02:00.896Z,24.43
2023-08-09T02:03:03.945Z,24.46
2023-08-09T02:04:10.586Z,24.52
2023-08-09T02:05:13.375Z,24.43
2023-08-09T02:06:16.913Z,24.37
2023-08-09T02:07:19.415Z,24.41
2023-08-09T02:08:21.851Z,24.40
2023-08-09T02:09:29.024Z,24.43
2023-08-09T02:10:33.362Z,24.41
2023-08-09T02:11:37.208Z,24.46
2023-08-09T02:12:40.081Z,24.52
2023-08-09T02:13:44.780Z,24.55
2023-08-09T02:14:47.378Z,24.47
2023-08-09T02:15:51.110Z,24.47
2023-08-09T02:16:54.122Z,24.41
2023-08-09T02:17:59.698Z,24.45
2023-08-09T02:19:02.754Z,24.54
2023-08-09T02:20:08.319Z,24.63
2023-08-09T02:21:12.312Z,24.69
2023-08-09T02:22:19.822Z,24.71
2023-08-09T02:23:22.552Z,24.67
2023-08-09T02:24:26.110Z,24.73
2023-08-09T02:25:29.006Z,24.74
2023-08-09T02:26:36.144Z,24.74
2023-08-09T02:27:38.931Z,24.79
2023-08-09T02:28:42.763Z,24.78
2023-08-09T02:29:45.181Z,24.75
2023-08-09T02:30:49.384Z,24.67
2023-08-09T02:31:52.153Z,24.63
2023-08-09T02:32:55.597Z,24.60
2023-08-09T02:33:59.183Z,24.65
2023-08-09T02:35:03.533Z,24.69
2023-08-09T02:36:06.555Z,24.67
2023-08-09T02:37:10.042Z,24.67
2023-08-09T02:38:12.501Z,24.56
2023-08-09T02:39:16.282Z,24.45
2023-08-09T02:40:18.810Z,24.45
2023-08-09T02:41:22.356Z,24.51
2023-08-09T02:42:26.977Z,24.46
2023-08-09T02:43:30.239Z,24.48
2023-08-09T02:44:34.943Z,24.40
2023-08-09T02:45:38.341Z,24.45
2023-08-09T02:46:42.505Z,24.42
2023-08-09T02:47:45.091Z,24.38
2023-08-09T02:48:48.772Z,24.31
2023-08-09T02:49:51.401Z,24.24
2023-08-09T02:50:55.386Z,24.15
2023-08-09T02:51:58.282Z,24.17
2023-08-09T02:53:03.102Z,24.11
2023-08-09T02:54:07.487Z,24.20
2023-08-09T02:55:14.835Z,24.25
2023-08-09T02:56:17.438Z,24.20
2023-08-09T02:57:21.078Z,24.27
2023-08-09T02:58:24.941Z,24.30
2023-08-09T02:59:28.409Z,24.35
2023-08-09T03:00:31.394Z,24.27
2023-08-09T03:01:35.241Z,24.27
2023-08-09T03:02:37.906Z,24.24
2023-08-09T03:03:41.712Z,24.27
2023-08-09T03:04:44.299Z,24.30
2023-08-09T03:05:48.175Z,24.28
2023-08-09T03:06:50.699Z,24.17
2023-08-09T03:07:54.640Z,24.18
2023-08-09T03:08:57.241Z,24.17
2023-08-09T03:10:00.856Z,24.14
2023-08-09T03:11:04.371Z,24.16
2023-08-09T03:12:08.582Z,24.16
2023-08-09T03:13:11.120Z,24.09
2023-08-09T03:14:16.011Z,24.03
2023-08-09T03:15:18.618Z,23.93
2023-08-09T03:16:23.108Z,23.95
2023-08-09T03:17:25.786Z,23.88
2023-08-09T03:18:29.433Z,23.90
2023-08-09T03:19:32.708Z,23.96
2023-08-09T03:20:36.728Z,23.96
2023-08-09T03:21:39.478Z,24.01
2023-08-09T03:22:44.367Z,24.01
2023-08-09T03:23:47.182Z,23.97
2023-08-09T03:24:50.736Z,24.04
2023-08-09T03:25:53.877Z,24.01
2023-08-09T03:26:57.772Z,23.89
2023-08-09T03:28:00.379Z,23.91
2023-08-09T03:29:04.267Z,23.96
2023-08-09T03:30:10.251Z,24.03
2023-08-09T03:31:14.184Z,23.97
2023-08-09T03:32:16.663Z,23.95
2023-08-09T03:33:20.190Z,23.88
2023-08-09T03:34:22.755Z,23.91
2023-08-09T03:35:26.303Z,23.93
2023-08-09T03:36:28.820Z,23.96
2023-08-09T03:37:32.445Z,23.97
2023-08-09T03:38:36.510Z,23.94
2023-08-09T03:39:39.909Z,23.92
2023-08-09T03:40:42.817Z,23.94
2023-08-09T03:41:46.168Z,23.97
2023-08-09T03:42:48.718Z,24.05
2023-08-09T03:43:52.323Z,24.16
2023-08-09T03:44:55.670Z,24.25
2023-08-09T03:46:00.685Z,24.27
2023-08-09T03:47:03.541Z,24.35
2023-08-09T03:48:07.663Z,24.31
2023-08-09T03:49:12.399Z,24.32
2023-08-09T03:50:18.835Z,24.31
2023-08-09T03:51:21.234Z,24.16
2023-08-09T03:52:24.781Z,24.16
2023-08-09T03:53:27.383Z,24.12
2023-08-09T03:54:31.974Z,24.01
2023-08-09T03:55:34.526Z,24.00
2023-08-09T03:56:38.454Z,23.97
2023-08-09T03:57:41.024Z,24.01
2023-08-09T03:58:44.812Z,24.04
2023-08-09T03:59:47.298Z,24.05
2023-08-09T04:00:50.846Z,24.12
2023-08-09T04:01:54.715Z,24.15
2023-08-09T04:02:58.828Z,24.04
2023-08-09T04:04:02.351Z,23.95
2023-08-09T04:05:06.553Z,23.91
2023-08-09T04:06:10.668Z,23.78
2023-08-09T04:07:13.420Z,23.76
2023-08-09T04:08:17.032Z,23.85
2023-08-09T04:09:19.603Z,23.82
2023-08-09T04:10:23.748Z,23.79
2023-08-09T04:11:26.736Z,23.81
2023-08-09T04:12:30.442Z,23.81
2023-08-09T04:13:33.108Z,23.71
2023-08-09T04:14:37.033Z,23.73
2023-08-09T04:15:39.608Z,23.69
2023-08-09T04:16:43.549Z,23.66
2023-08-09T04:17:49.809Z,23.68
2023-08-09T04:18:53.455Z,23.64
2023-08-09T04:19:56.055Z,23.60
2023-08-09T04:20:59.689Z,23.52
2023-08-09T04:22:02.662Z,23.65
2023-08-09T04:23:06.403Z,23.66
2023-08-09T04:24:11.376Z,23.68
2023-08-09T04:25:15.280Z,23.67
2023-08-09T04:26:17.836Z,23.58
2023-08-09T04:27:22.647Z,23.39
2023-08-09T04:28:25.210Z,23.40
2023-08-09T04:29:29.014Z,23.50
2023-08-09T04:30:31.730Z,23.48
2023-08-09T04:31:35.801Z,23.41
2023-08-09T04:32:38.827Z,23.34
2023-08-09T04:33:50.845Z,23.40
2023-08-09T04:34:53.882Z,23.51
2023-08-09T04:35:57.731Z,23.55
2023-08-09T04:37:01.201Z,23.58
2023-08-09T04:38:05.880Z,23.46
2023-08-09T04:39:10.561Z,23.38
2023-08-09T04:40:14.736Z,23.45
2023-08-09T04:41:17.312Z,23.47
2023-08-09T04:42:20.745Z,23.37
2023-08-09T04:43:23.300Z,23.43
2023-08-09T04:44:28.176Z,23.46
2023-08-09T04:45:31.399Z,23.53
2023-08-09T04:46:35.542Z,23.46
2023-08-09T04:47:38.518Z,23.56
2023-08-09T04:48:44.874Z,23.58
2023-08-09T04:49:48.705Z,23.68
2023-08-09T04:50:55.102Z,23.75
2023-08-09T04:51:58.224Z,23.69
2023-08-09T04:53:02.958Z,23.73
2023-08-09T04:54:05.993Z,23.70
2023-08-09T04:55:10.358Z,23.73
2023-08-09T04:56:13.024Z,23.85
2023-08-09T04:57:15.547Z,23.82
2023-08-09T04:58:19.396Z,23.76
2023-08-09T04:59:21.859Z,23.77
2023-08-09T05:00:25.511Z,23.83
2023-08-09T05:01:28.058Z,23.75
2023-08-09T05:02:37.497Z,23.76
2023-08-09T05:03:41.306Z,23.80
2023-08-09T05:04:45.333Z,23.78
2023-08-09T05:05:48.927Z,23.78
2023-08-09T05:06:51.386Z,23.61
2023-08-09T05:07:54.994Z,23.55
2023-08-09T05:08:57.383Z,23.61
2023-08-09T05:10:00.933Z,23.60
2023-08-09T05:11:04.637Z,23.56
2023-08-09T05:12:07.913Z,23.59
2023-08-09T05:13:11.996Z,23.60
2023-08-09T05:14:14.445Z,23.74
2023-08-09T05:15:16.989Z,23.78
2023-08-09T05:16:26.029Z,23.78
2023-08-09T05:17:29.419Z,23.81
2023-08-09T05:18:32.906Z,23.72
2023-08-09T05:19:35.362Z,23.67
2023-08-09T05:20:40.450Z,23.79
2023-08-09T05:21:43.283Z,23.76
2023-08-09T05:22:47.324Z,23.63
2023-08-09T05:23:51.023Z,23.72
2023-08-09T05:24:55.591Z,23.81
2023-08-09T05:25:58.560Z,23.91
2023-08-09T05:27:03.136Z,23.97
2023-08-09T05:28:06.661Z,24.05
2023-08-09T05:29:10.282Z,24.01
2023-08-09T05:30:12.942Z,24.04
2023-08-09T05:31:16.506Z,23.99
2023-08-09T05:32:19.059Z,24.03
2023-08-09T05:33:22.501Z,24.09
2023-08-09T05:34:25.492Z,24.10
2023-08-09T05:35:29.143Z,24.15
2023-08-09T05:36:34.100Z,24.13
2023-08-09T05:37:36.643Z,24.06
2023-08-09T05:38:40.347Z,23.96
2023-08-09T05:39:44.384Z,24.02
2023-08-09T05:40:49.074Z,24.08
2023-08-09T05:41:51.676Z,24.17
2023-08-09T05:42:55.168Z,24.09
2023-08-09T05:43:57.510Z,24.16
2023-08-09T05:45:01.709Z,24.27
2023-08-09T05:46:04.711Z,24.33
2023-08-09T05:47:09.166Z,24.29
2023-08-09T05:48:13.462Z,24.38
2023-08-09T05:49:16.890Z,24.46
2023-08-09T05:50:19.676Z,24.48
2023-08-09T05:51:23.501Z,24.50
2023-08-09T05:52:27.743Z,24.47
2023-08-09T05:53:32.321Z,24.47
2023-08-09T05:54:34.689Z,24.48
2023-08-09T05:55:38.748Z,24.49
2023-08-09T05:56:41.280Z,24.44
2023-08-09T05:57:45.439Z,24.46
2023-08-09T05:58:48.014Z,24.51
2023-08-09T05:59:50.526Z,24.51
2023-08-09T06:00:54.184Z,24.53
2023-08-09T06:01:57.815Z,24.54
2023-08-09T06:03:03.195Z,24.58
2023-08-09T06:04:06.236Z,24.56
2023-08-09T06:05:11.767Z,24.51
2023-08-09T06:06:14.439Z,24.44
2023-08-09T06:07:18.564Z,24.41
2023-08-09T06:08:22.728Z,24.47
2023-08-09T06:10:46.870Z,24.40
2023-08-09T06:11:50.500Z,24.32
2023-08-09T06:12:53.394Z,24.39
2023-08-09T06:13:56.985Z,24.38
2023-08-09T06:14:59.636Z,24.40
2023-08-09T06:16:04.262Z,24.36
2023-08-09T06:17:06.754Z,24.44
2023-08-09T06:18:10.278Z,24.51
2023-08-09T06:19:13.328Z,24.54
2023-08-09T06:20:18.165Z,24.65
2023-08-09T06:21:20.783Z,24.66
2023-08-09T06:22:24.453Z,24.67
2023-08-09T06:23:28.460Z,24.80
2023-08-09T06:24:31.939Z,24.93
2023-08-09T06:25:34.995Z,24.98
2023-08-09T06:26:38.809Z,24.90
2023-08-09T06:27:41.765Z,24.89
2023-08-09T06:28:45.459Z,24.92
2023-08-09T06:29:48.018Z,24.90
2023-08-09T06:30:51.952Z,24.97
2023-08-09T06:31:54.537Z,25.03
2023-08-09T06:32:58.385Z,25.11
2023-08-09T06:34:01.185Z,25.19
2023-08-09T06:35:05.990Z,25.26
2023-08-09T06:36:08.760Z,25.29
2023-08-09T06:37:12.757Z,25.35
2023-08-09T06:38:16.249Z,25.38
2023-08-09T06:39:21.880Z,25.37
2023-08-09T06:40:24.512Z,25.38
2023-08-09T06:41:28.475Z,25.29
2023-08-09T06:42:31.012Z,25.17
2023-08-09T06:43:36.697Z,25.16
2023-08-09T06:44:39.741Z,25.17
2023-08-09T06:45:44.070Z,25.18
2023-08-09T06:46:47.180Z,25.21
2023-08-09T06:47:51.153Z,25.23
2023-08-09T06:48:54.042Z,25.27
2023-08-09T06:49:57.816Z,25.28
2023-08-09T06:51:01.915Z,25.31
2023-08-09T06:52:05.431Z,25.31
2023-08-09T06:53:09.544Z,25.28
2023-08-09T06:54:12.057Z,25.29
2023-08-09T06:55:17.311Z,25.36
2023-08-09T06:56:20.416Z,25.26
2023-08-09T06:57:24.529Z,25.27
2023-08-09T06:58:27.139Z,25.28
2023-08-09T06:59:30.831Z,25.35
2023-08-09T07:00:33.537Z,25.40
2023-08-09T07:01:37.449Z,25.45
2023-08-09T07:02:40.140Z,25.50
2023-08-09T07:03:45.128Z,25.42
2023-08-09T07:04:47.793Z,25.39
2023-08-09T07:05:51.865Z,25.51
2023-08-09T07:06:55.867Z,25.58
2023-08-09T07:08:01.975Z,25.62
2023-08-09T07:09:05.624Z,25.76
2023-08-09T07:10:10.330Z,25.82
2023-08-09T07:11:14.997Z,25.83
2023-08-09T07:12:18.674Z,25.84
2023-08-09T07:13:21.501Z,25.85
2023-08-09T07:14:25.285Z,25.94
2023-08-09T07:15:29.131Z,26.04
2023-08-09T07:16:32.822Z,26.05
2023-08-09T07:17:36.454Z,26.04
2023-08-09T07:18:40.362Z,26.08
2023-08-09T07:19:42.876Z,26.05
2023-08-09T07:20:46.767Z,26.06
2023-08-09T07:21:49.252Z,26.08
2023-08-09T07:22:54.214Z,26.09
2023-08-09T07:23:58.292Z,26.15
2023-08-09T07:25:02.615Z,26.20
2023-08-09T07:26:05.356Z,26.34
2023-08-09T07:27:10.557Z,26.41
2023-08-09T07:28:14.169Z,26.57
2023-08-09T07:29:17.667Z,26.69
2023-08-09T07:30:20.634Z,26.71
2023-08-09T07:31:26.530Z,26.77
2023-08-09T07:32:32.135Z,26.77
2023-08-09T07:33:35.978Z,26.75
2023-08-09T07:34:38.452Z,26.79
2023-08-09T07:35:42.015Z,26.84
2023-08-09T07:36:44.534Z,26.96
2023-08-09T07:37:48.989Z,27.08
2023-08-09T07:38:51.764Z,27.24
2023-08-09T07:39:55.554Z,27.23
2023-08-09T07:40:58.257Z,27.29
2023-08-09T07:42:02.001Z,27.41
2023-08-09T07:43:06.235Z,27.57
2023-08-09T07:44:10.032Z,27.63
2023-08-09T07:45:12.699Z,27.51
2023-08-09T07:46:16.368Z,27.59
2023-08-09T07:47:19.225Z,27.61
2023-08-09T07:48:22.870Z,27.68
2023-08-09T07:49:27.427Z,27.68
2023-08-09T07:50:31.198Z,27.78
2023-08-09T07:51:33.634Z,27.94
2023-08-09T07:52:37.898Z,28.00
2023-08-09T07:53:40.662Z,27.84
2023-08-09T07:54:44.923Z,27.80
2023-08-09T07:55:47.306Z,27.85
2023-08-09T07:56:50.897Z,27.81
2023-08-09T07:57:53.298Z,27.83
2023-08-09T07:58:58.091Z,27.60
2023-08-09T08:00:05.202Z,27.53
2023-08-09T08:01:09.485Z,27.57
2023-08-09T08:02:11.985Z,27.63
2023-08-09T08:03:15.587Z,27.52
2023-08-09T08:04:18.252Z,27.50
2023-08-09T08:05:22.186Z,27.56
2023-08-09T08:06:24.639Z,27.74
2023-08-09T08:07:28.130Z,27.80
2023-08-09T08:08:32.939Z,27.91
2023-08-09T08:09:36.654Z,28.02
2023-08-09T08:10:39.121Z,27.98
2023-08-09T08:11:43.653Z,28.11
2023-08-09T08:12:49.820Z,28.00
2023-08-09T08:13:53.387Z,28.04
2023-08-09T08:14:57.583Z,28.02
2023-08-09T08:16:01.418Z,27.95
2023-08-09T08:17:03.976Z,27.89
2023-08-09T08:18:08.251Z,27.69
2023-08-09T08:19:10.891Z,27.82
2023-08-09T08:20:18.405Z,27.82
2023-08-09T08:21:21.137Z,27.76
2023-08-09T08:22:23.621Z,27.81
2023-08-09T08:23:27.254Z,27.84
2023-08-09T08:24:30.008Z,27.83
2023-08-09T08:25:33.897Z,27.94
2023-08-09T08:26:36.371Z,27.95
2023-08-09T08:27:39.432Z,28.05
2023-08-09T08:28:42.909Z,27.92
2023-08-09T08:29:45.498Z,27.86
2023-08-09T08:30:50.495Z,27.77
2023-08-09T08:31:53.077Z,27.74
2023-08-09T08:32:57.117Z,27.93
2023-08-09T08:33:59.806Z,28.09
2023-08-09T08:35:03.783Z,28.16
2023-08-09T08:36:21.575Z,28.22
2023-08-09T08:37:30.260Z,28.10
2023-08-09T08:38:34.181Z,28.20
2023-08-09T08:39:38.095Z,28.24
2023-08-09T08:40:40.721Z,28.09
2023-08-09T08:41:44.405Z,27.97
2023-08-09T08:42:47.300Z,27.93
2023-08-09T08:43:51.093Z,27.95
2023-08-09T08:44:53.670Z,28.03
2023-08-09T08:46:00.889Z,27.96
2023-08-09T08:47:05.732Z,27.82
2023-08-09T08:48:10.453Z,27.87
2023-08-09T08:49:15.950Z,28.04
2023-08-09T08:50:20.939Z,27.91
2023-08-09T08:51:27.181Z,27.82
2023-08-09T08:52:32.416Z,28.01
2023-08-09T08:53:35.905Z,28.02
2023-08-09T08:54:41.668Z,28.04
2023-08-09T08:55:45.060Z,28.15
2023-08-09T08:56:50.251Z,28.08
2023-08-09T08:57:54.373Z,28.02
2023-08-09T08:58:58.041Z,27.89
2023-08-09T09:00:09.671Z,28.12
2023-08-09T09:01:20.246Z,28.01
2023-08-09T09:02:22.957Z,28.17
2023-08-09T09:03:26.618Z,28.27
2023-08-09T09:04:29.182Z,28.25
2023-08-09T09:05:33.602Z,28.42
2023-08-09T09:06:36.469Z,28.56
2023-08-09T09:07:39.831Z,28.75
2023-08-09T09:08:43.904Z,28.60
2023-08-09T09:09:58.399Z,28.48
2023-08-09T09:11:01.950Z,28.37
2023-08-09T09:12:05.568Z,28.27
2023-08-09T09:13:10.711Z,28.29
2023-08-09T09:14:14.980Z,28.39
2023-08-09T09:15:19.527Z,28.58
2023-08-09T09:16:23.946Z,28.72
2023-08-09T09:17:28.701Z,28.81
2023-08-09T09:18:31.178Z,28.62
2023-08-09T09:19:37.755Z,28.79
2023-08-09T09:20:42.783Z,28.82
2023-08-09T09:21:47.276Z,28.76
2023-08-09T09:22:49.929Z,28.78
2023-08-09T09:23:53.704Z,28.84
2023-08-09T09:25:00.253Z,28.85
2023-08-09T09:26:04.696Z,28.83
2023-08-09T09:27:08.586Z,28.95
2023-08-09T09:28:19.898Z,29.06
2023-08-09T09:29:32.333Z,29.07
2023-08-09T09:30:34.966Z,29.07
2023-08-09T09:31:42.195Z,28.92
2023-08-09T09:32:58.512Z,28.98
2023-08-09T09:34:02.590Z,28.77
2023-08-09T09:35:05.888Z,28.73
2023-08-09T09:36:13.071Z,28.75
2023-08-09T09:37:18.720Z,28.75
2023-08-09T09:38:22.728Z,28.70
2023-08-09T09:39:29.188Z,28.74
2023-08-09T09:40:37.227Z,28.75
2023-08-09T09:41:40.175Z,28.81
2023-08-09T09:42:43.956Z,28.63
2023-08-09T09:43:49.221Z,28.63
2023-08-09T09:44:52.730Z,28.78
2023-08-09T09:45:55.969Z,28.76
2023-08-09T09:47:03.888Z,28.89
2023-08-09T09:48:18.347Z,28.82
2023-08-09T09:49:22.475Z,28.85
2023-08-09T09:50:28.922Z,29.00
2023-08-09T09:51:32.593Z,28.97
2023-08-09T09:52:36.646Z,29.04
2023-08-09T09:53:41.261Z,29.18
2023-08-09T09:54:43.852Z,29.25
2023-08-09T09:55:47.767Z,29.32
2023-08-09T09:56:50.702Z,29.47
2023-08-09T09:57:54.626Z,29.51
2023-08-09T09:58:57.276Z,29.55
2023-08-09T10:00:02.138Z,29.47
2023-08-09T10:01:05.991Z,29.49
2023-08-09T10:02:12.987Z,29.51
2023-08-09T10:03:17.709Z,29.43
2023-08-09T10:04:22.471Z,29.30
2023-08-09T10:05:28.197Z,29.35
2023-08-09T10:06:33.696Z,29.27
2023-08-09T10:07:36.056Z,29.35
2023-08-09T10:08:41.011Z,29.48
2023-08-09T10:09:44.404Z,29.40
2023-08-09T10:10:52.015Z,29.55
2023-08-09T10:11:55.986Z,29.63
2023-08-09T10:12:59.472Z,29.59
2023-08-09T10:14:04.281Z,29.53
2023-08-09T10:15:10.058Z,29.53
2023-08-09T10:16:12.815Z,29.50
2023-08-09T10:17:20.556Z,29.41
2023-08-09T10:18:29.071Z,29.28
2023-08-09T10:19:33.980Z,29.12
2023-08-09T10:20:37.583Z,29.31
2023-08-09T10:21:43.449Z,29.34
2023-08-09T10:22:47.319Z,29.31
2023-08-09T10:23:58.613Z,29.34
2023-08-09T10:25:01.479Z,29.42
2023-08-09T10:26:05.224Z,29.34
2023-08-09T10:27:11.634Z,29.50
2023-08-09T10:28:16.240Z,29.43
2023-08-09T10:29:22.490Z,29.38
2023-08-09T10:30:29.752Z,29.35
2023-08-09T10:31:54.576Z,29.30
2023-08-09T10:33:00.428Z,29.23
2023-08-09T10:34:13.148Z,29.02
2023-08-09T10:35:18.845Z,28.98
2023-08-09T10:36:33.309Z,29.10
2023-08-09T10:37:36.834Z,29.12
2023-08-09T10:38:48.257Z,29.21
2023-08-09T10:40:15.401Z,29.32
2023-08-09T10:41:17.927Z,29.31
2023-08-09T10:42:21.670Z,29.29
2023-08-09T10:43:25.792Z,29.09
2023-08-09T10:44:37.093Z,29.16
2023-08-09T10:45:41.266Z,29.12
2023-08-09T10:46:44.479Z,29.16
2023-08-09T10:47:48.430Z,29.24
2023-08-09T10:48:54.581Z,29.29
2023-08-09T10:50:01.576Z,29.36
2023-08-09T10:51:20.742Z,29.11
2023-08-09T10:52:31.559Z,29.13
2023-08-09T10:53:52.657Z,29.07
2023-08-09T10:55:27.770Z,29.26
2023-08-09T10:56:34.432Z,29.03
2023-08-09T10:57:41.950Z,28.83
2023-08-09T10:58:47.142Z,29.04
2023-08-09T10:59:58.608Z,29.22
2023-08-09T11:01:02.382Z,29.24
2023-08-09T11:02:05.598Z,29.21
2023-08-09T11:03:09.634Z,29.35
2023-08-09T11:04:16.228Z,29.48
2023-08-09T11:05:19.951Z,29.50
2023-08-09T11:06:35.049Z,29.39
2023-08-09T11:07:37.617Z,29.19
2023-08-09T11:08:41.301Z,29.32
2023-08-09T11:09:45.238Z,29.16
2023-08-09T11:10:50.788Z,29.36
2023-08-09T11:11:53.355Z,29.23
2023-08-09T11:13:04.042Z,29.14
2023-08-09T11:14:09.861Z,28.92
2023-08-09T11:15:13.529Z,29.00
2023-08-09T11:16:20.656Z,29.18
2023-08-09T11:17:25.231Z,29.14
2023-08-09T11:18:29.567Z,29.14
2023-08-09T11:19:36.322Z,29.12
2023-08-09T11:20:41.268Z,29.13
2023-08-09T11:21:45.526Z,29.19
2023-08-09T11:22:55.771Z,29.14
2023-08-09T11:24:00.161Z,29.21
2023-08-09T11:25:04.498Z,29.29
2023-08-09T11:26:07.229Z,29.09
2023-08-09T11:27:14.269Z,29.26
2023-08-09T11:28:16.894Z,29.18
2023-08-09T11:29:21.718Z,29.41
2023-08-09T11:30:25.775Z,29.25
2023-08-09T11:31:29.873Z,29.44
2023-08-09T11:32:32.912Z,29.47
2023-08-09T11:33:36.533Z,29.44
2023-08-09T11:34:40.748Z,29.32
2023-08-09T11:35:46.090Z,29.27
2023-08-09T11:36:52.358Z,29.15
2023-08-09T11:37:55.003Z,29.00
2023-08-09T11:38:59.200Z,28.97
2023-08-09T11:40:03.442Z,29.02
2023-08-09T11:41:08.913Z,29.15
2023-08-09T11:42:12.004Z,29.29
2023-08-09T11:43:17.771Z,29.06
2023-08-09T11:44:23.677Z,29.08
2023-08-09T11:45:28.067Z,29.11
2023-08-09T11:46:30.617Z,29.12
2023-08-09T11:47:34.396Z,29.10
2023-08-09T11:48:40.818Z,29.31
2023-08-09T11:49:46.773Z,29.49
2023-08-09T11:51:00.321Z,29.34
2023-08-09T11:52:05.088Z,29.47
2023-08-09T11:53:08.178Z,29.44
2023-08-09T11:54:11.488Z,29.28
2023-08-09T11:55:16.674Z,28.97
2023-08-09T11:56:20.832Z,28.90
2023-08-09T11:57:24.239Z,29.11
2023-08-09T11:58:26.991Z,29.14
2023-08-09T11:59:30.883Z,29.28
2023-08-09T12:00:33.567Z,29.22
2023-08-09T12:01:40.517Z,29.17
2023-08-09T12:02:43.326Z,29.05
2023-08-09T12:03:49.012Z,29.18
2023-08-09T12:04:52.993Z,29.29
2023-08-09T12:05:57.340Z,29.35
2023-08-09T12:07:01.521Z,29.23
2023-08-09T12:08:04.702Z,28.96
2023-08-09T12:09:32.699Z,29.00
2023-08-09T12:10:41.745Z,29.10
2023-08-09T12:11:49.885Z,28.93
2023-08-09T12:12:52.485Z,29.11
2023-08-09T12:13:56.103Z,29.37
2023-08-09T12:14:58.560Z,29.58
2023-08-09T12:16:08.178Z,29.72
2023-08-09T12:17:22.684Z,29.56
2023-08-09T12:18:27.024Z,29.30
2023-08-09T12:19:29.676Z,29.12
2023-08-09T12:20:34.001Z,28.97
2023-08-09T12:21:37.488Z,28.89
2023-08-09T12:22:39.974Z,28.70
2023-08-09T12:23:43.369Z,28.50
2023-08-09T12:24:45.794Z,28.73
2023-08-09T12:25:49.905Z,28.52
2023-08-09T12:26:52.491Z,28.62
2023-08-09T12:27:56.183Z,28.70
2023-08-09T12:28:58.644Z,28.71
2023-08-09T12:30:02.731Z,28.84
2023-08-09T12:31:06.516Z,28.87
2023-08-09T12:32:11.212Z,28.94
2023-08-09T12:33:13.630Z,28.75
2023-08-09T12:34:17.505Z,28.90
2023-08-09T12:35:20.486Z,28.89
2023-08-09T12:36:26.540Z,28.86
2023-08-09T12:37:29.417Z,28.72
2023-08-09T12:38:33.021Z,28.89
2023-08-09T12:39:36.038Z,28.73
2023-08-09T12:40:39.955Z,28.70
2023-08-09T12:41:44.150Z,28.80
2023-08-09T12:42:46.967Z,28.77
2023-08-09T12:43:50.674Z,29.06
2023-08-09T12:44:53.346Z,28.93
2023-08-09T12:45:57.042Z,28.99
2023-08-09T12:46:59.641Z,29.08
2023-08-09T12:48:03.668Z,29.19
2023-08-09T12:49:06.459Z,29.20
2023-08-09T12:50:11.527Z,29.19
2023-08-09T12:51:14.499Z,29.07
2023-08-09T12:52:19.890Z,29.05
2023-08-09T12:53:22.624Z,28.81
2023-08-09T12:54:28.124Z,28.95
2023-08-09T12:55:30.682Z,28.98
2023-08-09T12:56:34.398Z,28.96
2023-08-09T12:57:36.957Z,28.98
2023-08-09T12:58:40.940Z,29.14
2023-08-09T12:59:44.358Z,28.96
2023-08-09T13:00:48.072Z,28.70
2023-08-09T13:01:51.454Z,28.76
2023-08-09T13:02:55.594Z,28.82
2023-08-09T13:03:58.252Z,28.81
2023-08-09T13:05:04.101Z,28.81
2023-08-09T13:06:06.652Z,28.73
2023-08-09T13:07:10.516Z,28.56
2023-08-09T13:08:15.078Z,28.59
2023-08-09T13:09:19.309Z,28.81
2023-08-09T13:10:22.594Z,28.82
2023-08-09T13:11:26.045Z,28.60
2023-08-09T13:12:28.533Z,28.53
2023-08-09T13:13:32.088Z,28.63
2023-08-09T13:14:35.089Z,28.83
2023-08-09T13:15:38.991Z,28.92
2023-08-09T13:16:41.491Z,28.97
2023-08-09T13:17:44.984Z,29.03
2023-08-09T13:18:47.731Z,28.85
2023-08-09T13:19:51.628Z,28.61
2023-08-09T13:20:54.949Z,28.51
2023-08-09T13:21:58.517Z,28.53
2023-08-09T13:23:01.055Z,28.69
2023-08-09T13:24:08.025Z,28.77
2023-08-09T13:25:11.511Z,28.75
2023-08-09T13:26:15.286Z,28.61
2023-08-09T13:27:17.831Z,28.40
2023-08-09T13:28:20.360Z,28.60
2023-08-09T13:29:23.853Z,28.59
2023-08-09T13:30:26.432Z,28.76
2023-08-09T13:31:30.386Z,28.89
2023-08-09T13:32:35.954Z,28.79
2023-08-09T13:33:39.896Z,28.57
2023-08-09T13:34:42.770Z,28.64
2023-08-09T13:35:47.566Z,28.75
2023-08-09T13:36:50.265Z,28.63
2023-08-09T13:37:54.522Z,28.54
2023-08-09T13:38:57.309Z,28.57
2023-08-09T13:40:02.998Z,28.54
2023-08-09T13:41:05.554Z,28.68
2023-08-09T13:42:09.494Z,28.61
2023-08-09T13:43:13.081Z,28.61
2023-08-09T13:44:16.882Z,28.54
2023-08-09T13:45:19.350Z,28.59
2023-08-09T13:46:22.845Z,28.74
2023-08-09T13:47:25.393Z,28.51
2023-08-09T13:48:29.082Z,28.49
2023-08-09T13:49:31.568Z,28.33
2023-08-09T13:50:35.685Z,28.30
2023-08-09T13:51:38.214Z,28.30